Time;durP1;ratioP1;P1;durP2;ratioP2;P2;SDS_P1;SDS_P2;PMS_P1;PMS_P2;Temp;Humidity;BMP_temperature;BMP_pressure;BME280_temperature;BME280_humidity;BME280_pressure;Samples;Min_cycle;Max_cycle;Signal;HPM_P1;HPM_P2
2022/06/16 00:01:25;;;;;;;16.23;13.38;;;17.30;76.70;;;;;;5110029;28;20051;-73
2022/06/16 00:03:51;;;;;;;15.50;13.68;;;17.30;76.60;;;;;;5108426;28;20020;-73
2022/06/16 00:06:16;;;;;;;16.27;13.95;;;17.20;76.20;;;;;;5109844;28;20099;-74
2022/06/16 00:08:42;;;;;;;20.02;14.90;;;17.10;76.20;;;;;;5109058;28;20040;-74
2022/06/16 00:11:16;;;;;;;18.05;14.85;;;17.00;76.70;;;;;;5107403;28;20506;-73
2022/06/16 00:13:42;;;;;;;;;;;16.90;76.80;;;;;;5108464;28;20039;-74
2022/06/16 00:16:08;;;;;;;21.60;15.07;;;16.80;77.00;;;;;;5113957;28;20110;-73
2022/06/16 00:18:35;;;;;;;19.58;14.27;;;16.70;77.10;;;;;;5105350;28;20048;-73
2022/06/16 00:21:00;;;;;;;18.13;15.25;;;16.80;77.20;;;;;;5109843;28;20065;-74
2022/06/16 00:23:26;;;;;;;18.55;15.55;;;16.70;77.30;;;;;;5108851;28;20032;-73
2022/06/16 00:25:52;;;;;;;19.90;16.02;;;16.60;77.50;;;;;;5109431;28;20016;-74
2022/06/16 00:28:18;;;;;;;18.63;16.67;;;16.60;77.60;;;;;;5090461;28;20124;-73
2022/06/16 00:30:44;;;;;;;17.33;15.50;;;16.60;77.60;;;;;;5109795;27;20036;-73
2022/06/16 00:33:10;;;;;;;21.40;16.17;;;16.60;77.80;;;;;;5109711;28;20035;-73
2022/06/16 00:35:36;;;;;;;18.80;15.85;;;16.50;78.00;;;;;;5108964;28;20109;-73
2022/06/16 00:38:01;;;;;;;18.98;15.88;;;16.50;78.10;;;;;;5105137;28;20107;-74
2022/06/16 00:40:27;;;;;;;19.58;16.23;;;16.50;78.10;;;;;;5107066;28;20036;-73
2022/06/16 00:42:53;;;;;;;18.77;16.35;;;16.50;78.10;;;;;;5109169;28;20021;-73
2022/06/16 00:45:50;;;;;;;20.73;16.17;;;16.50;78.10;;;;;;5106311;27;20036;-72
2022/06/16 00:48:21;;;;;;;21.17;16.33;;;16.50;78.30;;;;;;5105138;28;20029;-73
2022/06/16 00:50:53;;;;;;;20.13;17.42;;;16.40;78.40;;;;;;5109502;28;20028;-73
2022/06/16 00:53:19;;;;;;;18.48;16.58;;;16.40;78.40;;;;;;5109024;28;20060;-73
2022/06/16 00:55:44;;;;;;;22.75;17.95;;;16.40;78.70;;;;;;5108499;28;20036;-73
2022/06/16 00:58:11;;;;;;;22.17;18.52;;;16.30;79.00;;;;;;5108628;28;20024;-73
2022/06/16 01:00:45;;;;;;;21.25;18.65;;;16.20;79.20;;;;;;5108875;28;20228;-72
2022/06/16 01:03:11;;;;;;;22.70;18.30;;;16.20;79.40;;;;;;5107787;28;20328;-73
2022/06/16 01:05:39;;;;;;;21.40;18.20;;;16.10;79.60;;;;;;5103361;28;20072;-73
2022/06/16 01:08:06;;;;;;;19.30;16.90;;;16.10;79.70;;;;;;5106034;28;20024;-74
2022/06/16 01:10:43;;;;;;;21.25;19.00;;;16.10;79.80;;;;;;5103967;27;20044;-72
2022/06/16 01:13:43;;;;;;;20.13;17.92;;;16.10;79.90;;;;;;5091367;28;20047;-73
2022/06/16 01:16:32;;;;;;;19.92;17.38;;;16.10;79.90;;;;;;5105934;28;20020;-73
2022/06/16 01:19:10;;;;;;;22.73;18.45;;;16.10;79.90;;;;;;5104430;28;20051;-73
2022/06/16 01:21:48;;;;;;;21.15;18.90;;;16.10;80.00;;;;;;5106758;28;20051;-73
2022/06/16 01:24:38;;;;;;;22.00;19.73;;;16.10;79.90;;;;;;5104731;28;20028;-73
2022/06/16 01:27:34;;;;;;;19.98;17.92;;;16.00;80.10;;;;;;5106934;28;20151;-72
2022/06/16 01:30:04;;;;;;;19.15;17.27;;;16.00;80.40;;;;;;5109465;28;20028;-72
2022/06/16 01:32:36;;;;;;;19.00;16.98;;;16.00;80.20;;;;;;5110236;28;20042;-73
2022/06/16 01:35:05;;;;;;;23.30;19.63;;;16.00;80.20;;;;;;5106502;27;20028;-73
2022/06/16 01:37:52;;;;;;;21.13;18.67;;;16.00;80.00;;;;;;5107475;28;20060;-73
2022/06/16 01:40:41;;;;;;;24.80;19.63;;;16.10;79.80;;;;;;5107353;28;20020;-72
2022/06/16 01:43:15;;;;;;;22.75;20.35;;;16.00;79.70;;;;;;5051253;28;20024;-73
2022/06/16 01:46:03;;;;;;;22.35;20.08;;;16.00;79.90;;;;;;5106053;28;20024;-73
2022/06/16 01:48:30;;;;;;;24.30;19.15;;;15.90;80.20;;;;;;5099863;28;20080;-73
2022/06/16 01:51:05;;;;;;;24.23;20.10;;;15.80;80.40;;;;;;5106470;28;20038;-73
2022/06/16 01:53:54;;;;;;;21.75;19.58;;;15.70;80.70;;;;;;5090154;28;20032;-73
2022/06/16 01:56:25;;;;;;;23.10;20.67;;;15.60;80.80;;;;;;5100423;28;20891;-74
2022/06/16 01:59:00;;;;;;;26.23;21.52;;;15.60;81.30;;;;;;5104343;28;20031;-73
2022/06/16 02:01:30;;;;;;;23.90;21.42;;;15.60;81.40;;;;;;5101148;28;20138;-74
2022/06/16 02:04:02;;;;;;;25.52;22.92;;;15.50;81.50;;;;;;5106156;28;20099;-73
2022/06/16 02:06:34;;;;;;;24.38;21.92;;;15.50;81.80;;;;;;5088458;28;20032;-73
2022/06/16 02:09:06;;;;;;;25.50;22.77;;;15.40;81.80;;;;;;5107450;28;20040;-71
2022/06/16 02:11:33;;;;;;;28.45;23.05;;;15.40;82.00;;;;;;5104032;28;20036;-72
2022/06/16 02:14:07;;;;;;;26.17;23.38;;;15.30;82.30;;;;;;5101078;28;20073;-72
2022/06/16 02:16:35;;;;;;;24.45;21.88;;;15.40;82.40;;;;;;5104840;28;20028;-73
2022/06/16 02:19:05;;;;;;;25.10;22.48;;;15.30;82.50;;;;;;5103524;27;20020;-73
2022/06/16 02:21:42;;;;;;;25.98;23.25;;;15.40;82.50;;;;;;5106511;28;20358;-73
2022/06/16 02:24:10;;;;;;;26.55;23.65;;;15.40;82.50;;;;;;5104440;28;20028;-73
2022/06/16 02:26:37;;;;;;;25.25;22.60;;;15.40;82.50;;;;;;5107346;28;20037;-72
2022/06/16 02:29:21;;;;;;;25.58;22.65;;;15.40;82.50;;;;;;5105823;28;20502;-73
2022/06/16 02:31:55;;;;;;;25.63;23.08;;;15.40;82.50;;;;;;5103375;28;20032;-73
2022/06/16 02:34:58;;;;;;;23.38;21.08;;;15.40;82.40;;;;;;5104876;28;20028;-72
2022/06/16 02:37:36;;;;;;;25.35;22.75;;;15.40;82.30;;;;;;5105235;28;20020;-72
2022/06/16 02:40:39;;;;;;;24.75;22.25;;;15.40;82.20;;;;;;5102719;27;20024;-73
2022/06/16 02:43:10;;;;;;;24.33;21.85;;;15.40;81.90;;;;;;5100369;28;20040;-72
2022/06/16 02:46:05;;;;;;;22.58;20.42;;;15.40;81.80;;;;;;5107936;27;20080;-73
2022/06/16 02:49:19;;;;;;;26.52;22.75;;;15.30;81.80;;;;;;5101996;28;20047;-72
2022/06/16 02:52:03;;;;;;;24.67;22.23;;;15.30;81.90;;;;;;5027951;28;20086;-72
2022/06/16 02:54:37;;;;;;;24.60;22.10;;;15.30;81.80;;;;;;5097502;28;20028;-72
2022/06/16 02:57:37;;;;;;;24.60;22.17;;;15.20;81.80;;;;;;5106466;28;20046;-73
2022/06/16 03:00:09;;;;;;;25.27;22.75;;;15.20;81.90;;;;;;5086834;28;20024;-74
2022/06/16 03:02:38;;;;;;;25.38;22.88;;;15.20;82.00;;;;;;5088096;28;20016;-72
2022/06/16 03:05:05;;;;;;;26.55;23.83;;;15.10;82.10;;;;;;5106675;28;20040;-72
2022/06/16 03:07:33;;;;;;;26.92;24.05;;;15.10;82.30;;;;;;5106369;27;20027;-73
2022/06/16 03:10:00;;;;;;;26.25;23.50;;;15.10;82.40;;;;;;5105730;28;20024;-71
2022/06/16 03:12:26;;;;;;;28.00;25.20;;;15.10;82.50;;;;;;5104017;28;20122;-72
2022/06/16 03:14:51;;;;;;;26.80;24.08;;;15.10;82.40;;;;;;5107117;27;20028;-73
2022/06/16 03:17:17;;;;;;;27.30;24.48;;;15.10;82.50;;;;;;5105273;28;20120;-72
2022/06/16 03:19:44;;;;;;;26.73;23.85;;;15.10;82.60;;;;;;5102076;28;20020;-72
2022/06/16 03:22:10;;;;;;;27.58;24.77;;;15.10;82.50;;;;;;5103352;28;20020;-71
2022/06/16 03:24:36;;;;;;;26.40;23.83;;;15.10;82.40;;;;;;5086577;28;20088;-71
2022/06/16 03:27:02;;;;;;;28.30;25.60;;;15.10;82.40;;;;;;5106661;28;20035;-73
2022/06/16 03:29:28;;;;;;;26.42;23.77;;;15.10;82.40;;;;;;5105657;28;20016;-73
2022/06/16 03:31:55;;;;;;;27.10;23.85;;;15.10;82.40;;;;;;5106569;28;20107;-73
2022/06/16 03:34:21;;;;;;;25.38;22.77;;;15.10;82.30;;;;;;5106194;28;20021;-72
2022/06/16 03:36:47;;;;;;;26.30;23.52;;;15.10;81.90;;;;;;5102988;28;20016;-72
2022/06/16 03:39:13;;;;;;;26.33;23.70;;;15.10;81.80;;;;;;5105912;27;20040;-73
2022/06/16 03:41:39;;;;;;;27.00;24.42;;;15.10;81.80;;;;;;5110532;28;20096;-73
2022/06/16 03:44:05;;;;;;;26.45;23.75;;;15.00;82.00;;;;;;5106840;28;20032;-74
2022/06/16 03:46:30;;;;;;;26.42;23.80;;;15.00;82.10;;;;;;5109469;27;20024;-73
2022/06/16 03:48:56;;;;;;;25.80;23.20;;;15.00;82.10;;;;;;5108193;28;20055;-72
2022/06/16 03:51:22;;;;;;;27.23;24.63;;;15.10;82.00;;;;;;5110431;28;20051;-74
2022/06/16 03:53:48;;;;;;;27.63;24.40;;;15.10;82.00;;;;;;5090755;28;20048;-72
2022/06/16 03:56:14;;;;;;;27.00;24.08;;;15.10;82.00;;;;;;5109859;28;20032;-74
2022/06/16 03:58:40;;;;;;;26.33;23.60;;;15.10;81.80;;;;;;5110243;28;20162;-73
2022/06/16 04:01:06;;;;;;;26.13;23.73;;;15.20;81.70;;;;;;5106113;28;20035;-72
2022/06/16 04:06:17;;;;;;;26.13;23.65;;;15.20;81.20;;;;;;5108802;28;20034;-72
2022/06/16 04:08:43;;;;;;;26.20;23.67;;;15.30;81.20;;;;;;5088224;28;20028;-72
2022/06/16 04:11:28;;;;;;;26.77;22.48;;;15.30;81.20;;;;;;5107577;28;20028;-71
2022/06/16 04:13:57;;;;;;;27.30;24.48;;;15.40;81.20;;;;;;5109484;28;20048;-72
2022/06/16 04:16:23;;;;;;;28.08;25.10;;;15.40;81.10;;;;;;5109498;28;20016;-72
2022/06/16 04:18:49;;;;;;;25.73;22.95;;;15.40;81.00;;;;;;5108745;28;20034;-72
2022/06/16 04:21:15;;;;;;;27.27;24.70;;;15.50;81.10;;;;;;5111681;28;20055;-72
2022/06/16 04:23:40;;;;;;;26.13;23.33;;;15.60;80.80;;;;;;5109894;27;20038;-73
2022/06/16 04:26:07;;;;;;;26.30;23.65;;;15.60;80.70;;;;;;5110068;28;20023;-72
2022/06/16 04:28:32;;;;;;;29.67;26.58;;;15.60;80.80;;;;;;5109225;28;20023;-74
2022/06/16 04:30:59;;;;;;;26.23;23.73;;;15.60;81.00;;;;;;5109093;28;20032;-74
2022/06/16 04:33:25;;;;;;;27.35;24.48;;;15.60;81.00;;;;;;5108704;27;20028;-72
2022/06/16 04:35:51;;;;;;;28.90;25.88;;;15.60;81.20;;;;;;5109998;28;20069;-72
2022/06/16 04:38:17;;;;;;;27.00;24.40;;;15.60;81.20;;;;;;5108639;28;20039;-74
2022/06/16 04:40:43;;;;;;;28.48;25.48;;;15.60;81.30;;;;;;5106291;27;20024;-75
2022/06/16 04:43:09;;;;;;;27.40;24.88;;;15.60;81.40;;;;;;5106218;28;20028;-74
2022/06/16 04:45:34;;;;;;;28.23;25.55;;;15.60;81.40;;;;;;5109117;27;20043;-73
2022/06/16 04:48:00;;;;;;;28.25;25.45;;;15.70;81.50;;;;;;5108619;28;20040;-74
2022/06/16 04:50:25;;;;;;;27.73;24.92;;;15.80;81.50;;;;;;5107152;28;20020;-74
2022/06/16 04:52:51;;;;;;;26.15;23.52;;;15.90;81.50;;;;;;5108793;28;20032;-74
2022/06/16 04:55:17;;;;;;;28.92;26.05;;;15.90;81.40;;;;;;5108491;27;20073;-73
2022/06/16 04:57:43;;;;;;;26.77;24.15;;;16.00;81.30;;;;;;5107836;27;20639;-73
2022/06/16 05:00:13;;;;;;;28.75;25.60;;;16.00;81.40;;;;;;5107791;28;20051;-73
2022/06/16 05:02:39;;;;;;;27.85;25.00;;;16.10;81.30;;;;;;5108572;28;20020;-73
2022/06/16 05:05:05;;;;;;;27.20;24.60;;;16.10;81.30;;;;;;5104602;28;20066;-74
2022/06/16 05:07:31;;;;;;;25.33;22.63;;;16.40;81.70;;;;;;5106885;28;20023;-73
2022/06/16 05:09:57;;;;;;;21.80;19.45;;;17.70;79.10;;;;;;5106878;28;20263;-73
2022/06/16 05:12:22;;;;;;;19.35;17.02;;;19.40;73.20;;;;;;5108144;28;20069;-74
2022/06/16 05:14:48;;;;;;;21.38;14.77;;;21.10;67.00;;;;;;5106571;28;20024;-74
2022/06/16 05:17:14;;;;;;;16.00;14.18;;;22.40;62.00;;;;;;5103102;28;20043;-74
2022/06/16 05:19:39;;;;;;;15.05;13.45;;;23.40;58.40;;;;;;5106539;27;20031;-74
2022/06/16 05:22:05;;;;;;;14.38;12.95;;;24.40;55.30;;;;;;5104889;28;20016;-73
2022/06/16 05:24:32;;;;;;;14.90;10.60;;;24.60;54.10;;;;;;5104163;28;20036;-74
2022/06/16 05:26:58;;;;;;;13.15;11.20;;;25.40;52.90;;;;;;5108357;28;20020;-71
2022/06/16 05:29:24;;;;;;;14.07;11.88;;;25.90;50.30;;;;;;5102402;28;20012;-71
2022/06/16 05:31:49;;;;;;;13.95;12.38;;;26.20;48.90;;;;;;5104345;28;20020;-74
2022/06/16 05:34:15;;;;;;;15.27;12.55;;;26.30;48.80;;;;;;5104317;28;20032;-74
2022/06/16 05:36:44;;;;;;;15.35;12.15;;;26.30;48.10;;;;;;5105023;28;20024;-73
2022/06/16 05:39:10;;;;;;;14.75;10.60;;;26.50;45.90;;;;;;5104477;28;20027;-74
2022/06/16 05:41:35;;;;;;;14.48;11.75;;;26.40;46.90;;;;;;5103692;28;20020;-72
2022/06/16 05:44:01;;;;;;;15.48;13.10;;;26.40;47.80;;;;;;5107476;28;20027;-74
2022/06/16 05:46:27;;;;;;;16.90;11.95;;;26.10;47.40;;;;;;5109196;28;20020;-72
2022/06/16 05:48:53;;;;;;;16.25;13.00;;;25.20;49.50;;;;;;5103191;28;20036;-71
2022/06/16 05:51:19;;;;;;;16.58;14.18;;;24.20;51.70;;;;;;5088418;28;20024;-72
2022/06/16 05:53:45;;;;;;;16.10;14.32;;;23.90;52.70;;;;;;5106041;27;20040;-73
2022/06/16 05:56:12;;;;;;;19.77;15.32;;;23.50;53.80;;;;;;5109896;28;20021;-72
2022/06/16 05:58:38;;;;;;;20.13;15.75;;;22.60;56.20;;;;;;5107468;27;20105;-71
2022/06/16 06:01:05;;;;;;;16.55;13.68;;;21.70;58.70;;;;;;5106707;28;20046;-73
2022/06/16 06:03:31;;;;;;;17.73;15.93;;;21.20;61.20;;;;;;5107727;28;20035;-72
2022/06/16 06:05:59;;;;;;;18.52;15.70;;;20.70;62.00;;;;;;5107566;28;20087;-72
2022/06/16 06:16:43;;;;;;;;;;;19.60;65.30;;;;;;5106393;28;20024;-72
2022/06/16 06:19:23;;;;;;;19.08;15.18;;;19.20;65.30;;;;;;5102068;28;19911;-77
2022/06/16 06:22:07;;;;;;;16.83;14.68;;;19.20;66.50;;;;;;5089038;28;20016;-76
2022/06/16 06:24:36;;;;;;;16.58;14.70;;;19.20;66.90;;;;;;5105718;28;20054;-75
2022/06/16 06:27:14;;;;;;;19.00;13.45;;;19.50;66.30;;;;;;5106874;28;20309;-76
2022/06/16 06:29:41;;;;;;;16.35;12.32;;;19.80;64.90;;;;;;5104946;28;20024;-76
2022/06/16 06:32:09;;;;;;;16.23;11.32;;;19.90;62.90;;;;;;5085977;28;20039;-75
2022/06/16 06:34:34;;;;;;;14.27;11.57;;;19.90;63.10;;;;;;5107049;28;20092;-77
2022/06/16 06:37:01;;;;;;;13.95;10.95;;;19.90;62.70;;;;;;5088130;28;20196;-79
2022/06/16 06:39:27;;;;;;;15.18;11.23;;;20.10;62.10;;;;;;5102213;28;20058;-79
2022/06/16 06:41:52;;;;;;;15.20;12.27;;;20.20;61.90;;;;;;5107978;28;20016;-81
2022/06/16 06:44:18;;;;;;;16.80;11.93;;;20.20;60.50;;;;;;5104294;28;20032;-78
2022/06/16 06:46:44;;;;;;;14.30;11.07;;;19.90;61.60;;;;;;5105914;28;20036;-78
2022/06/16 06:49:09;;;;;;;15.48;10.63;;;20.10;62.10;;;;;;5104564;28;20024;-78
2022/06/16 06:51:35;;;;;;;15.82;11.57;;;20.60;61.30;;;;;;5105266;28;20036;-77
2022/06/16 06:54:02;;;;;;;15.68;11.88;;;20.80;59.50;;;;;;5104093;28;20051;-79
2022/06/16 06:56:29;;;;;;;13.48;11.07;;;21.00;59.20;;;;;;5106856;28;20028;-78
2022/06/16 06:58:57;;;;;;;17.23;11.38;;;20.80;59.00;;;;;;5105297;28;20044;-78
2022/06/16 07:01:23;;;;;;;12.98;10.60;;;20.80;59.10;;;;;;5087170;28;20060;-79
2022/06/16 07:03:49;;;;;;;14.55;12.00;;;20.90;59.20;;;;;;5107972;28;20017;-79
2022/06/16 07:06:17;;;;;;;14.30;11.00;;;21.00;59.70;;;;;;5099022;27;20133;-77
2022/06/16 07:08:44;;;;;;;14.57;11.48;;;21.20;59.00;;;;;;5084956;28;20154;-79
2022/06/16 07:11:10;;;;;;;16.33;11.73;;;21.00;58.50;;;;;;5099962;28;20044;-79
2022/06/16 07:13:36;;;;;;;16.75;11.35;;;21.30;58.50;;;;;;5107791;28;20042;-80
2022/06/16 07:16:02;;;;;;;14.10;10.70;;;21.30;57.50;;;;;;5106834;28;20076;-76
2022/06/16 07:18:28;;;;;;;13.85;11.60;;;21.50;57.90;;;;;;5111047;28;20083;-79
2022/06/16 07:20:54;;;;;;;15.13;11.30;;;21.80;57.00;;;;;;5111940;28;20096;-79
2022/06/16 07:23:19;;;;;;;20.65;13.65;;;22.00;56.30;;;;;;5089178;28;20024;-80
2022/06/16 07:25:49;;;;;;;17.25;12.35;;;22.10;57.10;;;;;;5112639;27;20024;-79
2022/06/16 07:28:16;;;;;;;18.67;12.82;;;22.00;57.40;;;;;;5110538;27;20044;-80
2022/06/16 07:30:43;;;;;;;15.35;12.02;;;22.10;57.10;;;;;;5111971;28;20020;-80
2022/06/16 07:33:09;;;;;;;17.38;12.35;;;22.20;56.80;;;;;;5110686;27;20028;-74
2022/06/16 07:35:36;;;;;;;15.45;12.48;;;22.30;56.20;;;;;;5110589;28;20040;-79
2022/06/16 07:38:02;;;;;;;16.02;12.70;;;22.30;55.60;;;;;;5092586;28;20024;-76
2022/06/16 07:40:28;;;;;;;18.42;13.02;;;22.10;56.00;;;;;;5109325;28;20027;-73
2022/06/16 07:42:57;;;;;;;17.92;13.60;;;22.10;57.00;;;;;;5111323;28;20027;-78
2022/06/16 07:45:28;;;;;;;20.52;13.55;;;22.10;57.70;;;;;;5108544;27;20029;-80
2022/06/16 07:47:55;;;;;;;14.82;12.93;;;22.00;56.90;;;;;;5109425;28;20055;-79
2022/06/16 07:50:21;;;;;;;16.38;12.27;;;22.10;57.30;;;;;;5108624;28;20032;-78
2022/06/16 07:52:47;;;;;;;20.05;13.82;;;22.20;56.50;;;;;;5108325;28;20035;-80
2022/06/16 07:55:13;;;;;;;15.65;12.23;;;22.10;56.00;;;;;;5104248;28;20031;-80
2022/06/16 07:57:45;;;;;;;17.13;13.30;;;22.20;56.90;;;;;;5105621;28;20036;-78
2022/06/16 08:00:14;;;;;;;17.65;13.43;;;22.50;56.40;;;;;;5104989;28;20024;-77
2022/06/16 08:02:39;;;;;;;18.40;12.85;;;22.50;56.50;;;;;;5106761;28;20075;-80
2022/06/16 08:05:06;;;;;;;20.77;13.27;;;22.60;55.60;;;;;;5107765;28;20040;-81
2022/06/16 08:07:32;;;;;;;18.50;13.48;;;22.60;55.70;;;;;;5108606;28;20027;-79
2022/06/16 08:09:58;;;;;;;19.05;13.52;;;22.60;55.10;;;;;;5105842;28;20040;-73
2022/06/16 08:12:24;;;;;;;19.25;12.48;;;22.60;56.80;;;;;;5108969;28;20044;-80
2022/06/16 08:14:50;;;;;;;22.10;13.82;;;22.70;54.80;;;;;;5106600;28;20035;-84
2022/06/16 08:17:27;;;;;;;20.67;12.48;;;22.80;55.20;;;;;;5111214;28;20051;-82
2022/06/16 08:19:54;;;;;;;15.90;12.40;;;22.70;53.70;;;;;;5105724;28;20077;-75
2022/06/16 08:22:20;;;;;;;16.02;12.25;;;22.80;55.20;;;;;;5108649;28;20395;-81
2022/06/16 08:24:47;;;;;;;16.30;12.00;;;22.90;54.70;;;;;;5103986;28;20020;-82
2022/06/16 08:27:14;;;;;;;14.40;11.35;;;23.20;54.20;;;;;;5110803;28;20020;-78
2022/06/16 08:29:42;;;;;;;17.58;11.25;;;23.20;53.40;;;;;;5108036;28;20016;-77
2022/06/16 08:32:08;;;;;;;14.95;10.82;;;23.20;53.50;;;;;;5108608;28;20028;-79
2022/06/16 08:34:34;;;;;;;12.65;9.90;;;23.50;52.80;;;;;;5104990;28;20052;-80
2022/06/16 08:37:00;;;;;;;14.98;10.18;;;23.70;52.50;;;;;;5107423;28;20024;-79
2022/06/16 08:39:25;;;;;;;13.18;10.20;;;24.00;51.80;;;;;;5109304;28;20030;-78
2022/06/16 08:42:07;;;;;;;17.55;11.57;;;24.10;49.40;;;;;;5110373;28;20567;-79
2022/06/16 08:44:40;;;;;;;15.88;9.27;;;24.00;50.20;;;;;;5108734;28;20020;-77
2022/06/16 08:47:18;;;;;;;15.13;9.75;;;23.70;49.00;;;;;;5106429;28;20020;-81
2022/06/16 08:50:23;;;;;;;13.40;9.48;;;23.80;49.20;;;;;;5100607;28;20024;-79
2022/06/16 08:53:30;;;;;;;12.27;9.85;;;23.80;50.00;;;;;;5109178;28;20028;-79
2022/06/16 08:56:11;;;;;;;14.38;9.85;;;23.80;49.50;;;;;;5107916;28;20027;-81
2022/06/16 08:59:11;;;;;;;12.20;8.27;;;23.70;49.30;;;;;;5108169;28;20024;-82
2022/06/16 09:01:52;;;;;;;13.00;8.13;;;23.80;49.00;;;;;;5108548;28;20111;-81
2022/06/16 09:04:35;;;;;;;16.33;9.02;;;24.20;48.90;;;;;;5104486;27;20095;-78
2022/06/16 09:07:22;;;;;;;13.68;7.72;;;24.40;47.80;;;;;;5109694;28;20024;-79
2022/06/16 09:10:14;;;;;;;17.17;9.80;;;24.30;47.80;;;;;;5106336;28;20197;-80
2022/06/16 09:13:18;;;;;;;14.80;9.55;;;24.30;46.50;;;;;;5088315;28;20047;-79
2022/06/16 09:16:02;;;;;;;13.88;7.90;;;24.10;47.50;;;;;;5071549;28;20082;-80
2022/06/16 09:18:34;;;;;;;;;;;24.50;48.50;;;;;;5087370;28;20021;-81
2022/06/16 09:21:26;;;;;;;15.82;8.65;;;24.70;46.30;;;;;;5086900;28;19900;-81
2022/06/16 09:24:25;;;;;;;14.50;7.95;;;25.00;46.60;;;;;;5082708;28;20052;-81
2022/06/16 09:26:53;;;;;;;11.77;7.97;;;25.50;46.50;;;;;;5054864;28;20160;-82
2022/06/16 09:29:44;;;;;;;15.60;8.77;;;25.40;42.30;;;;;;5093141;28;20422;-76
2022/06/16 09:32:22;;;;;;;12.70;8.30;;;25.10;42.90;;;;;;5087449;28;20017;-81
2022/06/16 09:35:05;;;;;;;12.55;8.88;;;25.30;44.50;;;;;;5077059;28;20024;-81
2022/06/16 09:37:32;;;;;;;18.33;9.80;;;25.50;42.70;;;;;;5088380;28;20025;-79
2022/06/16 09:40:11;;;;;;;15.00;9.30;;;25.10;43.10;;;;;;5086212;28;20051;-79
2022/06/16 09:42:44;;;;;;;11.93;7.45;;;25.10;44.00;;;;;;5086726;28;20056;-78
2022/06/16 09:45:21;;;;;;;12.77;7.35;;;25.20;42.80;;;;;;5083578;28;20043;-75
2022/06/16 09:48:05;;;;;;;11.02;7.15;;;25.10;43.10;;;;;;5084572;28;20025;-76
2022/06/16 09:50:42;;;;;;;;;;;25.50;42.50;;;;;;5089282;28;20420;-75
2022/06/16 09:53:19;;;;;;;14.30;7.18;;;25.60;42.90;;;;;;5086389;28;19909;-75
2022/06/16 09:55:50;;;;;;;10.48;6.53;;;26.20;42.60;;;;;;5085208;28;20025;-76
2022/06/16 09:58:50;;;;;;;13.30;7.10;;;26.00;40.60;;;;;;5083840;28;20048;-78
2022/06/16 10:01:19;;;;;;;13.98;7.03;;;25.90;41.00;;;;;;5086506;28;20258;-77
2022/06/16 10:04:00;;;;;;;11.60;7.32;;;25.40;42.00;;;;;;5084592;28;20028;-76
2022/06/16 10:06:57;;;;;;;11.93;7.07;;;25.60;42.40;;;;;;5085471;28;20293;-76
2022/06/16 10:09:52;;;;;;;14.25;7.60;;;25.60;42.10;;;;;;5076475;28;20017;-77
2022/06/16 10:12:30;;;;;;;9.00;5.60;;;25.50;43.20;;;;;;5064640;28;20052;-75
2022/06/16 10:14:55;;;;;;;13.38;6.25;;;26.10;43.90;;;;;;5086348;28;20051;-75
2022/06/16 10:17:23;;;;;;;11.45;6.50;;;26.00;41.80;;;;;;5087253;28;20036;-77
2022/06/16 10:19:50;;;;;;;12.75;6.53;;;26.10;40.90;;;;;;5087194;28;20020;-77
2022/06/16 10:22:19;;;;;;;9.77;5.38;;;26.50;40.70;;;;;;5087043;28;20048;-77
2022/06/16 10:24:54;;;;;;;9.50;6.07;;;26.80;40.90;;;;;;5088368;28;20017;-78
2022/06/16 10:27:21;;;;;;;10.13;5.53;;;27.10;38.90;;;;;;5086225;28;20029;-77
2022/06/16 10:29:56;;;;;;;9.80;5.55;;;27.10;40.30;;;;;;5086805;28;20056;-77
2022/06/16 10:32:41;;;;;;;9.93;5.15;;;27.10;38.80;;;;;;5087044;28;20039;-76
2022/06/16 10:35:15;;;;;;;9.52;4.90;;;27.10;39.60;;;;;;5085801;28;20024;-78
2022/06/16 10:37:42;;;;;;;9.07;5.75;;;27.30;39.20;;;;;;5083407;28;20021;-77
2022/06/16 10:40:14;;;;;;;10.52;5.50;;;27.00;38.20;;;;;;5074092;28;20109;-75
2022/06/16 10:42:41;;;;;;;10.27;4.75;;;27.10;38.00;;;;;;5084270;28;20139;-76
2022/06/16 10:45:25;;;;;;;11.52;5.32;;;27.30;38.10;;;;;;5086904;28;20103;-77
2022/06/16 10:48:00;;;;;;;10.80;5.90;;;26.80;38.30;;;;;;5081571;28;20044;-76
2022/06/16 10:50:30;;;;;;;9.48;4.55;;;26.60;38.60;;;;;;5117222;28;20025;-77
2022/06/16 10:53:07;;;;;;;9.68;4.85;;;26.90;38.70;;;;;;5087102;28;20025;-77
2022/06/16 10:55:42;;;;;;;9.95;5.30;;;27.20;38.30;;;;;;5085230;28;20036;-77
2022/06/16 10:58:30;;;;;;;8.82;5.43;;;27.60;37.10;;;;;;5079673;28;20027;-77
2022/06/16 11:01:16;;;;;;;10.90;4.97;;;27.90;36.70;;;;;;5086378;28;20047;-77
2022/06/16 11:03:52;;;;;;;9.35;4.93;;;27.50;37.90;;;;;;5084759;28;20012;-77
2022/06/16 11:06:22;;;;;;;9.20;5.32;;;28.00;37.30;;;;;;5084372;28;20040;-77
2022/06/16 11:08:55;;;;;;;8.63;4.93;;;27.60;36.30;;;;;;5085230;28;20021;-78
2022/06/16 11:11:52;;;;;;;12.30;6.30;;;27.30;37.50;;;;;;5094792;28;20123;-77
2022/06/16 11:14:28;;;;;;;12.18;7.05;;;26.70;38.80;;;;;;5105033;28;20063;-78
2022/06/16 11:16:55;;;;;;;9.60;6.57;;;26.80;39.30;;;;;;5106965;28;20027;-78
2022/06/16 11:19:36;;;;;;;9.57;5.97;;;27.10;39.70;;;;;;5101140;28;20033;-77
2022/06/16 11:22:26;;;;;;;11.18;5.40;;;27.50;39.30;;;;;;5105600;28;20032;-77
2022/06/16 11:25:12;;;;;;;14.27;7.07;;;27.70;38.90;;;;;;5106235;28;20164;-77
2022/06/16 11:27:57;;;;;;;10.98;5.53;;;28.00;37.10;;;;;;5108731;28;20031;-76
2022/06/16 11:30:41;;;;;;;11.23;6.57;;;27.80;38.10;;;;;;5104683;28;20413;-78
2022/06/16 11:36:23;;;;;;;10.82;5.97;;;27.70;36.80;;;;;;5098566;28;20035;-77
2022/06/16 11:39:20;;;;;;;7.90;4.80;;;27.90;37.50;;;;;;5111192;27;20032;-79
2022/06/16 11:41:50;;;;;;;10.95;5.30;;;28.10;36.50;;;;;;5102474;28;20028;-77
2022/06/16 11:44:19;;;;;;;9.68;5.47;;;28.00;35.50;;;;;;5106114;27;20036;-77
2022/06/16 11:46:56;;;;;;;10.02;5.93;;;27.40;38.20;;;;;;5090292;28;20103;-77
2022/06/16 11:49:38;;;;;;;7.97;5.22;;;27.40;36.90;;;;;;5104138;28;20054;-77
2022/06/16 11:52:31;;;;;;;9.82;5.53;;;27.90;36.60;;;;;;5105005;27;20032;-77
2022/06/16 11:55:18;;;;;;;10.90;5.90;;;28.00;36.30;;;;;;5101966;28;20031;-79
2022/06/16 11:57:56;;;;;;;11.60;5.70;;;27.50;36.40;;;;;;5105775;28;20028;-77
2022/06/16 12:00:43;;;;;;;11.25;5.47;;;27.50;37.10;;;;;;5108257;27;20075;-78
2022/06/16 12:03:39;;;;;;;9.18;4.80;;;27.30;37.20;;;;;;5105747;28;20025;-78
2022/06/16 12:06:42;;;;;;;10.75;5.90;;;27.70;37.50;;;;;;5106675;27;20032;-76
2022/06/16 12:09:28;;;;;;;10.15;5.28;;;28.30;36.00;;;;;;5108218;28;20048;-79
2022/06/16 12:12:05;;;;;;;9.90;5.30;;;28.50;35.10;;;;;;5109197;28;20104;-78
2022/06/16 12:15:01;;;;;;;8.90;5.05;;;28.80;35.30;;;;;;5107292;28;20020;-77
2022/06/16 12:17:37;;;;;;;8.85;5.85;;;29.10;36.30;;;;;;5105035;28;20017;-77
2022/06/16 12:20:28;;;;;;;9.40;5.55;;;29.40;35.40;;;;;;5108265;27;20103;-78
2022/06/16 12:23:08;;;;;;;8.38;5.65;;;29.40;34.80;;;;;;5071657;28;20092;-77
2022/06/16 12:25:49;;;;;;;11.15;5.65;;;29.30;35.00;;;;;;5090304;28;20012;-78
2022/06/16 12:28:23;;;;;;;10.23;6.40;;;29.50;35.40;;;;;;5089268;28;20096;-78
2022/06/16 12:31:12;;;;;;;7.63;4.20;;;29.20;34.60;;;;;;5092779;28;20024;-78
2022/06/16 12:33:50;;;;;;;8.05;4.70;;;29.60;36.30;;;;;;5100314;27;20094;-77
2022/06/16 12:36:38;;;;;;;9.80;5.60;;;29.60;34.30;;;;;;5089535;28;20031;-78
2022/06/16 12:39:18;;;;;;;9.82;5.70;;;29.60;35.00;;;;;;5106808;28;20104;-76
2022/06/16 12:41:49;;;;;;;8.77;5.22;;;29.60;33.30;;;;;;5088970;28;20032;-77
2022/06/16 12:44:34;;;;;;;11.05;6.60;;;28.70;34.00;;;;;;5103647;28;20036;-79
2022/06/16 12:47:25;;;;;;;12.23;5.85;;;28.80;33.80;;;;;;5104181;27;20057;-76
2022/06/16 12:50:09;;;;;;;11.05;6.53;;;28.90;33.60;;;;;;5106157;28;20051;-75
2022/06/16 12:52:38;;;;;;;8.20;5.25;;;28.80;33.70;;;;;;5102382;28;20047;-76
2022/06/16 12:55:24;;;;;;;10.45;5.43;;;28.70;34.30;;;;;;5106325;28;20042;-77
2022/06/16 12:57:59;;;;;;;9.05;5.32;;;28.70;34.90;;;;;;5101035;28;20096;-76
2022/06/16 13:00:30;;;;;;;11.48;6.18;;;28.70;34.90;;;;;;5089219;28;20046;-76
2022/06/16 13:03:17;;;;;;;9.15;5.95;;;28.60;35.50;;;;;;5108666;28;20343;-76
2022/06/16 13:05:44;;;;;;;9.15;5.10;;;28.40;35.10;;;;;;5106722;28;20020;-77
2022/06/16 13:08:11;;;;;;;10.15;5.55;;;28.30;34.90;;;;;;5107028;28;20024;-75
2022/06/16 13:10:46;;;;;;;7.57;5.20;;;28.40;35.10;;;;;;5106649;28;20028;-76
2022/06/16 13:13:20;;;;;;;8.30;4.65;;;28.40;36.10;;;;;;5105947;28;20044;-76
2022/06/16 13:15:46;;;;;;;11.57;6.43;;;28.80;38.20;;;;;;5108650;28;20028;-76
2022/06/16 13:18:16;;;;;;;10.68;6.32;;;29.10;35.30;;;;;;5104600;28;20042;-77